Latest Weather Observations for Casterton

IDV60801

Issued at 8:12 am EST Saturday 24 August 2019 (issued every 10 minutes, with the page automatically refreshed every 10 minutes)

About weather observations | Map of weather stations | Latest weather observations for VIC | Other Formats
Station Details ID: 090182 Name: CASTERTON Lat: -37.58 Lon: 141.33 Height: 130.6 m
Data from the previous 72 hours. | See also: Recent months at Casterton
Date/Time
EST
Temp
°C
App
Temp
°C
Dew
Point
°C
Rel
Hum
%
Delta-T
°C
Wind Press
QNH
hPa
Press
MSL
hPa
Rain since
9am
mm
Dir  Spd
km/h
Gust
km/h
Spd
kts
Gust
kts
24/08:00am 10.4 5.6 5.4 71 2.3 N 20 28 11 15 1012.0 1012.1 0.2
24/07:30am 8.7 3.8 5.1 78 1.6 N 20 30 11 16 1012.1 1012.2 0.2
24/07:00am 8.6 3.7 5.0 78 1.6 N 20 28 11 15 1012.2 1012.3 0.2
24/06:30am 8.9 4.2 5.3 78 1.6 N 19 30 10 16 1012.3 1012.4 0.2
24/06:00am 8.9 4.0 5.3 78 1.6 N 20 30 11 16 1012.3 1012.4 0.2
24/05:30am 9.0 4.4 5.6 79 1.6 N 19 26 10 14 1012.5 1012.6 0.2
24/05:00am 8.9 5.1 5.8 81 1.4 N 15 20 8 11 1012.5 1012.6 0.2
24/04:30am 8.8 4.6 5.9 82 1.3 NNE 17 24 9 13 1012.7 1012.8 0.2
24/04:00am 8.7 4.5 5.8 82 1.3 N 17 22 9 12 1012.9 1013.0 0.2
24/03:30am 9.0 5.3 6.3 83 1.3 N 15 20 8 11 1013.3 1013.4 0.2
24/03:00am 9.2 5.2 6.5 83 1.3 N 17 24 9 13 1013.9 1014.0 0.2
24/02:30am 9.9 6.3 6.6 80 1.6 N 15 22 8 12 1014.5 1014.7 0.2
24/02:00am 9.7 5.8 7.0 83 1.3 N 17 22 9 12 1015.0 1015.2 0.2
24/01:30am 9.8 5.5 7.1 83 1.3 N 19 26 10 14 1015.3 1015.5 0.2
24/01:00am 9.0 5.7 6.4 84 1.2 NNW 13 20 7 11 1015.5 1015.7 0.2
24/12:30am 9.7 6.2 7.0 83 1.3 N 15 22 8 12 1015.5 1015.7 0.2
24/12:00am 9.4 6.0 7.5 88 0.9 N 15 22 8 12 1016.0 1016.2 0.2
 
Date/Time
EST
Temp
°C
App
Temp
°C
Dew
Point
°C
Rel
Hum
%
Delta-T
°C
Wind Press
QNH
hPa
Press
MSL
hPa
Rain since
9am
mm
Dir  Spd
km/h
Gust
km/h
Spd
kts
Gust
kts
23/11:30pm 9.2 6.7 8.0 92 0.6 N 11 15 6 8 1016.4 1016.6 0.2
23/11:00pm 7.3 4.8 6.6 95 0.3 N 9 11 5 6 1016.9 1017.1 0.2
23/10:30pm 7.6 4.7 6.7 94 0.4 N 11 15 6 8 1017.2 1017.4 0.2
23/10:00pm 8.7 6.1 7.6 93 0.5 N 11 17 6 9 1017.3 1017.5 0.2
23/09:30pm 8.4 6.1 7.6 95 0.4 N 9 13 5 7 1017.5 1017.7 0.2
23/09:00pm 7.9 5.5 6.8 93 0.5 N 9 13 5 7 1017.7 1017.9 0.2
23/08:30pm 8.3 5.9 6.9 91 0.7 N 9 11 5 6 1017.8 1018.0 0.2
23/08:00pm 8.5 5.3 6.8 89 0.8 N 13 15 7 8 1017.9 1018.1 0.2
23/07:30pm 8.8 5.7 7.1 89 0.8 N 13 15 7 8 1018.1 1018.3 0.2
23/07:00pm 10.0 7.3 7.4 84 1.2 N 11 15 6 8 1018.1 1018.3 0.2
23/06:30pm 10.5 7.9 7.6 82 1.4 N 11 15 6 8 1018.3 1018.5 0.2
23/06:00pm 12.2 8.2 8.3 77 1.9 NNW 19 28 10 15 1018.4 1018.6 0.2
23/05:30pm 13.2 8.6 8.1 71 2.5 NNW 22 32 12 17 1018.4 1018.6 0.2
23/05:00pm 13.8 9.8 8.4 70 2.7 NW 19 30 10 16 1018.3 1018.5 0.2
23/04:30pm 14.0 9.5 8.6 70 2.7 NNW 22 33 12 18 1018.4 1018.6 0.2
23/04:00pm 14.7 10.7 9.1 69 2.9 NNW 20 30 11 16 1018.4 1018.6 0.2
23/03:30pm 14.6 9.1 9.2 70 2.8 N 28 41 15 22 1018.5 1018.7 0.2
23/03:00pm 14.5 9.2 8.5 67 3.0 NNW 26 43 14 23 1018.5 1018.7 0.0
23/02:30pm 14.4 8.8 8.8 69 2.9 NNW 28 35 15 19 1018.7 1018.9 0.0
23/02:00pm 13.8 8.1 8.4 70 2.7 N 28 41 15 22 1018.9 1019.1 0.0
23/01:30pm 13.6 8.4 8.7 72 2.5 NNW 26 35 14 19 1019.6 1019.8 0.0
23/01:00pm 12.5 6.0 8.0 74 2.2 N 32 44 17 24 1020.6 1020.7 0.0
23/12:30pm 12.0 6.3 8.3 78 1.8 NNW 28 43 15 23 1021.4 1021.6 0.0
23/12:00pm 12.0 6.3 8.3 78 1.8 N 28 37 15 20 1022.0 1022.2 0.0
23/11:30am 11.6 7.0 8.3 80 1.6 NNW 22 33 12 18 1022.5 1022.7 0.0
23/11:00am 11.3 6.3 8.0 80 1.6 N 24 37 13 20 1023.0 1023.2 0.0
23/10:30am 11.1 5.9 7.4 78 1.8 N 24 37 13 20 1023.1 1023.3 0.0
23/10:00am 10.5 4.4 6.8 78 1.7 NNW 28 37 15 20 1023.3 1023.5 0.0
23/09:30am 10.5 6.3 7.4 81 1.5 N 19 28 10 15 1023.9 1024.1 0.0
23/09:00am 10.0 7.0 7.6 85 1.1 N 13 19 7 10 1024.3 1024.5 0.6
23/08:30am 9.3 6.6 7.3 87 1.0 N 11 15 6 8 1024.4 1024.6 0.6
23/08:00am 8.6 6.6 7.2 91 0.7 N 7 9 4 5 1024.5 1024.7 0.6
23/07:30am 8.2 6.3 6.7 90 0.7 N 6 7 3 4 1024.5 1024.7 0.6
23/07:00am 8.2 6.3 6.5 89 0.8 N 6 7 3 4 1024.4 1024.6 0.6
23/06:30am 8.6 5.7 6.6 87 0.9 NNW 11 17 6 9 1024.4 1024.6 0.6
23/06:00am 8.7 6.3 7.0 89 0.8 NNW 9 15 5 8 1024.2 1024.4 0.6
23/05:30am 8.7 6.3 7.2 90 0.7 NNW 9 11 5 6 1024.2 1024.4 0.6
23/05:00am 8.7 6.1 7.6 93 0.5 NNW 11 13 6 7 1024.3 1024.5 0.6
23/04:30am 8.7 6.2 8.3 97 0.2 NNW 11 13 6 7 1024.5 1024.7 0.6
23/04:00am 8.6 6.9 8.5 99 0.0 NW 7 9 4 5 1024.7 1024.9 0.6
23/03:30am 8.7 6.7 8.6 99 0.0 NNW 9 11 5 6 1024.9 1025.1 0.6
23/03:00am 8.9 6.9 8.8 99 0.0 NNW 9 11 5 6 1025.1 1025.3 0.6
23/02:30am 8.8 7.2 8.7 99 0.0 NNW 7 11 4 6 1025.4 1025.6 0.6
23/02:00am 9.1 7.6 9.0 99 0.0 NW 7 11 4 6 1025.7 1025.9 0.6
23/01:30am 9.2 7.7 9.1 99 0.0 NW 7 11 4 6 1025.9 1026.1 0.6
23/01:00am 8.9 8.6 8.8 99 0.0 CALM 0 0 0 0 1026.0 1026.2 0.6
23/12:30am 9.1 8.9 9.0 99 0.0 CALM 0 0 0 0 1026.2 1026.4 0.6
23/12:00am 9.1 8.9 9.0 99 0.0 CALM 0 0 0 0 1026.3 1026.5 0.6
 
Date/Time
EST
Temp
°C
App
Temp
°C
Dew
Point
°C
Rel
Hum
%
Delta-T
°C
Wind Press
QNH
hPa
Press
MSL
hPa
Rain since
9am
mm
Dir  Spd
km/h
Gust
km/h
Spd
kts
Gust
kts
22/11:30pm 9.1 8.1 9.0 99 0.0 WNW 4 6 2 3 1026.5 1026.7 0.6
22/11:00pm 9.0 7.6 8.9 99 0.0 WNW 6 6 3 3 1026.5 1026.7 0.6
22/10:30pm 8.8 8.5 8.7 99 0.0 CALM 0 0 0 0 1026.8 1027.0 0.6
22/10:00pm 8.5 8.1 8.4 99 0.0 CALM 0 0 0 0 1026.9 1027.1 0.6
22/09:30pm 9.1 8.9 9.0 99 0.0 CALM 0 6 0 3 1026.8 1027.0 0.6
22/09:00pm 9.5 7.7 9.4 99 0.0 SW 9 11 5 6 1027.0 1027.2 0.4
22/08:30pm 9.9 8.0 9.0 94 0.4 SW 9 15 5 8 1026.9 1027.1 0.4
22/08:00pm 10.1 8.6 9.0 93 0.5 WSW 7 11 4 6 1026.8 1027.0 0.4
22/07:30pm 10.1 8.5 8.9 92 0.6 SW 7 9 4 5 1026.6 1026.8 0.4
22/07:00pm 10.2 8.7 8.6 90 0.8 SW 6 7 3 4 1026.6 1026.8 0.4
22/06:30pm 10.1 8.6 8.4 89 0.8 SSW 6 7 3 4 1026.5 1026.7 0.4
22/06:00pm 10.5 8.0 8.4 87 1.0 SSW 11 13 6 7 1026.3 1026.5 0.4
22/05:30pm 11.8 9.5 9.0 83 1.4 SW 11 15 6 8 1026.1 1026.3 0.4
22/05:00pm 11.8 8.6 8.6 81 1.6 WSW 15 22 8 12 1025.9 1026.1 0.4
22/04:30pm 12.9 10.7 9.4 79 1.8 SSW 11 15 6 8 1025.9 1026.1 0.4
22/04:00pm 12.4 9.9 9.6 83 1.4 SSW 13 20 7 11 1025.9 1026.1 0.4
22/03:30pm 12.9 9.0 8.8 76 2.1 SW 19 28 10 15 1025.6 1025.8 0.4
22/03:00pm 12.4 9.0 9.1 80 1.7 SW 17 24 9 13 1025.6 1025.8 0.4
22/02:30pm 13.2 9.4 9.1 76 2.1 SW 19 28 10 15 1025.5 1025.7 0.4
22/02:00pm 12.8 8.9 8.7 76 2.1 SW 19 30 10 16 1025.4 1025.6 0.4
22/01:30pm 12.7 8.6 8.6 76 2.1 S 20 26 11 14 1025.4 1025.6 0.2
22/01:00pm 12.3 8.3 9.0 80 1.7 SSW 20 30 11 16 1025.6 1025.8 0.2
22/12:30pm 12.2 8.5 10.1 87 1.1 SSW 20 28 11 15 1025.8 1026.0 0.2
22/12:00pm 11.8 8.1 10.0 89 0.9 SSW 20 30 11 16 1026.0 1026.2 0.2
22/11:30am 11.9 7.9 10.3 90 0.8 SSW 22 32 12 17 1026.1 1026.3 0.2
22/11:00am 11.5 8.0 10.2 92 0.7 SSW 19 30 10 16 1026.0 1026.2 0.2
22/10:30am 11.2 7.6 10.6 96 0.3 SSW 20 28 11 15 1026.1 1026.3 0.2
22/10:00am 10.5 6.3 9.6 94 0.5 S 22 32 12 17 1025.7 1025.9 0.0
22/09:30am 11.1 8.2 10.9 99 0.1 SW 17 26 9 14 1025.4 1025.6 0.0
22/09:00am 10.7 7.7 10.5 99 0.1 SW 17 24 9 13 1025.1 1025.3 4.4
22/08:30am 10.1 7.3 10.0 99 0.1 WSW 15 20 8 11 1024.7 1024.9 4.4
22/08:00am 10.0 7.2 9.9 99 0.1 SW 15 20 8 11 1024.1 1024.3 4.4
22/07:30am 9.8 6.5 9.7 99 0.1 SW 17 28 9 15 1023.8 1024.0 4.4
22/07:00am 9.8 6.5 9.7 99 0.1 SW 17 26 9 14 1023.5 1023.7 4.2
22/06:30am 9.9 6.1 9.8 99 0.1 SW 20 28 11 15 1023.3 1023.5 3.8
22/06:00am 9.9 5.3 9.8 99 0.1 SW 24 33 13 18 1023.0 1023.2 3.8
22/05:30am 9.9 5.3 9.8 99 0.1 WSW 24 41 13 22 1023.0 1023.2 3.8
22/05:00am 10.1 5.5 9.6 97 0.3 WSW 24 33 13 18 1022.8 1023.0 3.8
22/04:30am 10.2 5.9 9.4 95 0.4 WSW 22 32 12 17 1022.5 1022.7 3.8
22/04:00am 9.9 5.6 9.3 96 0.3 WSW 22 33 12 18 1022.6 1022.8 3.8
22/03:30am 9.8 5.5 9.3 97 0.2 WSW 22 28 12 15 1022.8 1023.0 3.8
22/03:00am 10.0 6.2 9.7 98 0.2 WSW 20 30 11 16 1022.9 1023.1 3.8
22/02:30am 9.6 5.7 9.3 98 0.1 WSW 20 28 11 15 1022.9 1023.1 3.8
22/02:00am 9.9 5.7 9.6 98 0.2 WSW 22 32 12 17 1023.0 1023.2 3.8
22/01:30am 10.2 6.1 10.1 99 0.1 WSW 22 32 12 17 1023.0 1023.2 3.8
22/01:00am 10.5 5.3 10.3 99 0.1 WSW 28 43 15 23 1022.8 1023.0 3.8
22/12:30am 11.1 5.6 10.5 96 0.3 WSW 30 43 16 23 1022.6 1022.8 0.6
22/12:00am 11.2 6.1 10.7 97 0.3 WSW 28 39 15 21 1022.2 1022.4 0.6
 
Date/Time
EST
Temp
°C
App
Temp
°C
Dew
Point
°C
Rel
Hum
%
Delta-T
°C
Wind Press
QNH
hPa
Press
MSL
hPa
Rain since
9am
mm
Dir  Spd
km/h
Gust
km/h
Spd
kts
Gust
kts
21/11:36pm 11.6 6.4 10.3 92 0.7 W 28 46 15 25 1022.1 1022.3 0.6
21/11:30pm 11.6 6.0 10.3 92 0.7 WSW 30 41 16 22 1022.0 1022.2 0.6
21/11:00pm 11.5 6.7 10.4 93 0.6 W 26 41 14 22 1022.0 1022.2 0.6
21/10:50pm 11.8 6.3 10.4 91 0.7 WSW 30 48 16 26 1022.1 1022.3 0.6
21/10:30pm 11.8 6.6 10.2 90 0.8 WSW 28 43 15 23 1022.3 1022.5 0.6
21/10:16pm 11.8 6.6 10.2 90 0.8 W 28 56 15 30 1022.1 1022.3 0.6
21/10:00pm 11.8 6.2 10.2 90 0.8 WSW 30 43 16 23 1022.4 1022.6 0.6
21/09:33pm 11.7 6.5 10.3 91 0.7 W 28 50 15 27 1022.3 1022.5 0.6
21/09:30pm 11.6 7.1 10.2 91 0.7 W 24 39 13 21 1022.3 1022.5 0.6
21/09:16pm 11.7 6.5 10.3 91 0.7 W 28 46 15 25 1022.3 1022.5 0.6
21/09:00pm 11.6 6.0 10.2 91 0.7 W 30 44 16 24 1022.3 1022.5 0.6
21/08:55pm 11.6 6.4 10.2 91 0.7 W 28 48 15 26 1022.2 1022.4 0.6
21/08:30pm 11.4 6.9 10.1 92 0.7 W 24 37 13 20 1022.1 1022.3 0.6
21/08:00pm 11.4 7.0 10.3 93 0.6 W 24 41 13 22 1022.1 1022.3 0.6
21/07:30pm 11.4 6.6 10.3 93 0.6 W 26 39 14 21 1022.2 1022.4 0.6
21/07:00pm 11.4 7.0 10.5 94 0.5 W 24 37 13 20 1022.0 1022.2 0.6
21/06:30pm 11.4 7.1 10.8 96 0.3 W 24 35 13 19 1022.1 1022.3 0.6
21/06:00pm 11.5 6.8 10.7 95 0.4 W 26 35 14 19 1021.9 1022.1 0.6
21/05:30pm 11.6 7.2 10.5 93 0.6 W 24 39 13 21 1022.0 1022.2 0.6
21/05:06pm 11.7 6.6 10.6 93 0.6 W 28 50 15 27 1021.7 1021.9 0.6
21/05:00pm 11.7 7.4 10.6 93 0.6 W 24 39 13 21 1021.7 1021.9 0.6
21/04:30pm 12.3 7.6 10.7 90 0.8 W 26 37 14 20 1021.5 1021.7 0.6
21/04:01pm 12.6 7.0 10.1 85 1.3 WSW 30 48 16 26 1021.8 1022.0 0.6
21/04:00pm 12.7 7.5 10.2 85 1.3 W 28 43 15 23 1021.8 1022.0 0.6
21/03:30pm 12.8 8.1 10.7 87 1.1 W 26 37 14 20 1022.1 1022.3 0.6
21/03:00pm 13.2 7.7 10.4 83 1.5 WSW 30 43 16 23 1021.9 1022.1 0.6
21/02:30pm 13.3 7.1 9.9 80 1.8 WSW 33 48 18 26 1022.1 1022.3 0.6
21/02:00pm 13.1 8.3 10.3 83 1.5 WSW 26 41 14 22 1021.9 1022.1 0.6
21/01:41pm 13.4 8.3 10.6 83 1.5 WSW 28 46 15 25 1021.9 1022.1 0.6
21/01:30pm 13.0 7.1 10.5 85 1.3 WSW 32 46 17 25 1022.0 1022.2 0.6
21/01:23pm 12.8 7.8 10.9 88 1.0 WSW 28 46 15 25 1022.2 1022.4 0.6
21/01:00pm 12.0 7.4 11.2 95 0.4 WSW 26 35 14 19 1022.4 1022.6 0.6
21/12:30pm 12.5 7.4 10.6 88 1.0 WSW 28 41 15 22 1022.7 1022.9 0.4
21/12:00pm 12.6 8.2 11.7 94 0.5 WSW 26 41 14 22 1022.9 1023.1 0.2
21/11:30am 12.1 7.6 11.3 95 0.4 WSW 26 39 14 21 1023.3 1023.5 0.2
21/11:03am 13.0 8.0 10.9 87 1.1 WSW 28 46 15 25 1023.3 1023.5 0.0
21/11:00am 13.2 8.3 11.4 89 1.0 WSW 28 43 15 23 1023.3 1023.5 0.0
21/10:30am 11.7 7.1 11.1 96 0.3 WSW 26 41 14 22 1022.9 1023.1 0.0
21/10:00am 11.6 7.1 11.4 99 0.1 WSW 26 39 14 21 1022.6 1022.8 0.0
21/09:30am 11.0 7.5 10.8 99 0.1 WSW 20 28 11 15 1023.1 1023.3 0.0
21/09:00am 10.9 6.6 10.7 99 0.1 WSW 24 41 13 22 1023.1 1023.3 2.4
21/08:30am 10.6 6.2 10.4 99 0.1 WSW 24 35 13 19 1022.8 1023.0 2.2

Other formats

Comma delimited format used in spreadsheet applications
http://www.bom.gov.au/fwo/IDV60801/IDV60801.95825.axf

JavaScript Object Notation format (JSON) in row-major order
http://www.bom.gov.au/fwo/IDV60801/IDV60801.95825.json

Data quality

Most of these data are generated automatically and are frequently updated. Quality checks on data are not normally performed. It is possible for incorrect values to appear. Refer to information at About Latest Weather Observations and please check the disclaimer before using these data.